CheckWX is a tool to help pilots better visualize weather data.  It is not intended as a substitute for an official pre-flight weather briefing.

19:57:34 UTC

KCKM METAR
Fletcher Field Airport
Clarksdale, Mississippi, USA
Current

23 mins ago

KCKM 251935Z AUTO 17007KT 10SM FEW037 SCT044 33/24 A3006 RMK A01
Observed
Jun-25 @ 19:35 UTC
Wind
  • 170° at 7 KTS
Visibility
10 SM
Flight Rules
VFR
Cloud Levels
  • Few at 3,700' AGL
  • Scattered at 4,400' AGL
Temperature
33°C / 91°F
Dewpoint
24°C / 75°F
Heat Index
39°C / 102°F
Humidity
59%
Altimeter
30.06" Hg
Pressure
1017.92 hPa
Previous

43 mins ago

KCKM 251915Z AUTO 21008KT 10SM FEW037 33/23 A3005 RMK A01
Observed
Jun-25 @ 19:15 UTC
Wind
  • 210° at 8 KTS
Visibility
10 SM
Flight Rules
VFR
Cloud Levels
  • Few at 3,700' AGL
Temperature
33°C / 91°F
Dewpoint
23°C / 73°F
Heat Index
38°C / 100°F
Humidity
56%
Altimeter
30.05" Hg
Pressure
1017.62 hPa
Previous

1 hour ago

KCKM 251855Z AUTO 18007KT 10SM SCT036 32/24 A3006 RMK A01
Observed
Jun-25 @ 18:55 UTC
Wind
  • 180° at 7 KTS
Visibility
10 SM
Flight Rules
VFR
Cloud Levels
  • Scattered at 3,600' AGL
Temperature
32°C / 90°F
Dewpoint
24°C / 75°F
Heat Index
38°C / 101°F
Humidity
63%
Altimeter
30.06" Hg
Pressure
1017.92 hPa